^^
Station Historical Data
Daily Summary for March 4, 2018 Units:  Both    English   Metric
« Previous Day
Next Day »
Daily Weekly Monthly Yearly Custom
  High: Low: Average:
Temperature: TemperatureF °F /  -17.8 °C 61.3 °F /  16.3 °C 75.9 °F /  24.4 °C
Dew Point: DewpointF °F /  -17.8 °C 39.0 °F /  3.9 °C 49.3 °F /  9.6 °C
Humidity: Humidity% 17% 43%
Wind Speed: WindSpeedMPHmph /  0km/h - 2.1mph /  3.4km/h
Wind Gust: WindSpeedGustMPHmph /  0km/h - -
Wind- - ESE
Pressure: PressureIn in /  0 hPa 29.55 in /  1000.6 hPa -
Precipitation: 0.09 in /  2.29 mm    
Historical Graphs
 
 
Tabular Data for March 4, 2018
Time Temperature Dew Point Pressure Wind Wind Speed Wind Gust Humidity Rainfall Rate (Hourly) solar Conditions
TemperatureF °F /  -17.8 °C DewpointF °F /  -17.8 °C PressureInin /  0hPa Calm     Humidity% HourlyPrecipInin /  0mm SolarRadiationWatts/m^2 W/m2 Conditions
00:03 74.7 °F /  23.7 °C 50.7 °F /  10.4 °C 29.68in /  1005hPa SSE 0.9mph /  1.4km/h 3.0mph /  4.8km/h 43% 0.00in /  0mm 0.0 W/m2
00:08 74.7 °F /  23.7 °C 50.0 °F /  10 °C 29.68in /  1005hPa SSE 2.0mph /  3.2km/h 3.0mph /  4.8km/h 42% 0.00in /  0mm 0.0 W/m2
00:13 74.5 °F /  23.6 °C 51.1 °F /  10.6 °C 29.68in /  1005hPa Calm   1.0mph /  1.6km/h 44% 0.00in /  0mm 0.0 W/m2
00:19 74.1 °F /  23.4 °C 50.9 °F /  10.5 °C 29.68in /  1005hPa Calm   1.0mph /  1.6km/h 44% 0.00in /  0mm 0.0 W/m2
00:24 73.8 °F /  23.2 °C 50.5 °F /  10.3 °C 29.68in /  1005hPa Calm   1.0mph /  1.6km/h 44% 0.00in /  0mm 0.0 W/m2
00:29 73.6 °F /  23.1 °C 50.4 °F /  10.2 °C 29.68in /  1005hPa Calm   1.0mph /  1.6km/h 44% 0.00in /  0mm 0.0 W/m2
00:34 73.0 °F /  22.8 °C 49.8 °F /  9.9 °C 29.68in /  1005hPa Calm   1.0mph /  1.6km/h 44% 0.00in /  0mm 0.0 W/m2
00:39 72.9 °F /  22.7 °C 50.9 °F /  10.5 °C 29.68in /  1005hPa Calm     46% 0.00in /  0mm 0.0 W/m2
00:44 72.3 °F /  22.4 °C 50.9 °F /  10.5 °C 29.68in /  1005hPa Calm     47% 0.00in /  0mm 0.0 W/m2
00:50 72.1 °F /  22.3 °C 51.4 °F /  10.8 °C 29.68in /  1005hPa Calm     48% 0.00in /  0mm 0.0 W/m2
00:55 71.8 °F /  22.1 °C 51.6 °F /  10.9 °C 29.68in /  1005hPa Calm     49% 0.00in /  0mm 0.0 W/m2
01:00 71.4 °F /  21.9 °C 51.3 °F /  10.7 °C 29.68in /  1005hPa Calm     49% 0.00in /  0mm 0.0 W/m2
01:06 71.1 °F /  21.7 °C 50.9 °F /  10.5 °C 29.68in /  1005hPa Calm     49% 0.00in /  0mm 0.0 W/m2
01:11 70.7 °F /  21.5 °C 51.1 °F /  10.6 °C 29.68in /  1005hPa Calm     50% 0.00in /  0mm 0.0 W/m2
01:16 70.3 °F /  21.3 °C 51.4 °F /  10.8 °C 29.67in /  1004.6hPa Calm     51% 0.00in /  0mm 0.0 W/m2
01:22 70.0 °F /  21.1 °C 51.6 °F /  10.9 °C 29.67in /  1004.6hPa Calm   1.0mph /  1.6km/h 52% 0.00in /  0mm 0.0 W/m2
01:27 69.6 °F /  20.9 °C 50.7 °F /  10.4 °C 29.67in /  1004.6hPa Calm     51% 0.00in /  0mm 0.0 W/m2
01:32 69.4 °F /  20.8 °C 50.5 °F /  10.3 °C 29.67in /  1004.6hPa Calm     51% 0.00in /  0mm 0.0 W/m2
01:37 69.3 °F /  20.7 °C 51.4 °F /  10.8 °C 29.67in /  1004.6hPa Calm     53% 0.00in /  0mm 0.0 W/m2
01:43 68.9 °F /  20.5 °C 51.1 °F /  10.6 °C 29.67in /  1004.6hPa Calm     53% 0.00in /  0mm 0.0 W/m2
01:48 68.5 °F /  20.3 °C 50.2 °F /  10.1 °C 29.67in /  1004.6hPa Calm   1.0mph /  1.6km/h 52% 0.00in /  0mm 0.0 W/m2
01:53 68.4 °F /  20.2 °C 50.5 °F /  10.3 °C 29.67in /  1004.6hPa Calm     53% 0.00in /  0mm 0.0 W/m2
01:58 68.2 °F /  20.1 °C 50.9 °F /  10.5 °C 29.67in /  1004.6hPa Calm   1.0mph /  1.6km/h 54% 0.00in /  0mm 0.0 W/m2
02:04 67.8 °F /  19.9 °C 50.5 °F /  10.3 °C 29.67in /  1004.6hPa Calm   2.0mph /  3.2km/h 54% 0.00in /  0mm 0.0 W/m2
02:09 67.6 °F /  19.8 °C 50.4 °F /  10.2 °C 29.67in /  1004.6hPa ENE 0.9mph /  1.4km/h 3.0mph /  4.8km/h 54% 0.00in /  0mm 0.0 W/m2
02:14 67.5 °F /  19.7 °C 50.2 °F /  10.1 °C 29.67in /  1004.6hPa Calm   1.0mph /  1.6km/h 54% 0.00in /  0mm 0.0 W/m2
02:20 67.3 °F /  19.6 °C 50.5 °F /  10.3 °C 29.67in /  1004.6hPa Calm   1.0mph /  1.6km/h 55% 0.00in /  0mm 0.0 W/m2
02:25 67.3 °F /  19.6 °C 50.5 °F /  10.3 °C 29.67in /  1004.6hPa Calm   2.0mph /  3.2km/h 55% 0.00in /  0mm 0.0 W/m2
02:30 67.1 °F /  19.5 °C 50.4 °F /  10.2 °C 29.67in /  1004.6hPa Calm   1.0mph /  1.6km/h 55% 0.00in /  0mm 0.0 W/m2
02:35 66.9 °F /  19.4 °C 50.2 °F /  10.1 °C 29.67in /  1004.6hPa Calm   1.0mph /  1.6km/h 55% 0.00in /  0mm 0.0 W/m2
02:40 66.9 °F /  19.4 °C 50.2 °F /  10.1 °C 29.67in /  1004.6hPa Calm   1.0mph /  1.6km/h 55% 0.00in /  0mm 0.0 W/m2
02:45 66.9 °F /  19.4 °C 50.2 °F /  10.1 °C 29.66in /  1004.3hPa Calm   1.0mph /  1.6km/h 55% 0.00in /  0mm 0.0 W/m2
02:50 66.9 °F /  19.4 °C 50.2 °F /  10.1 °C 29.66in /  1004.3hPa Calm   1.0mph /  1.6km/h 55% 0.00in /  0mm 0.0 W/m2
02:55 66.7 °F /  19.3 °C 50.0 °F /  10 °C 29.66in /  1004.3hPa Calm   1.0mph /  1.6km/h 55% 0.00in /  0mm 0.0 W/m2
03:01 66.6 °F /  19.2 °C 49.8 °F /  9.9 °C 29.66in /  1004.3hPa Calm   1.0mph /  1.6km/h 55% 0.00in /  0mm 0.0 W/m2
03:06 66.6 °F /  19.2 °C 49.8 °F /  9.9 °C 29.66in /  1004.3hPa Calm   1.0mph /  1.6km/h 55% 0.00in /  0mm 0.0 W/m2
03:12 66.6 °F /  19.2 °C 49.8 °F /  9.9 °C 29.66in /  1004.3hPa Calm     55% 0.00in /  0mm 0.0 W/m2
03:17 66.4 °F /  19.1 °C 49.6 °F /  9.8 °C 29.66in /  1004.3hPa Calm   1.0mph /  1.6km/h 55% 0.00in /  0mm 0.0 W/m2
03:22 66.2 °F /  19 °C 50.0 °F /  10 °C 29.66in /  1004.3hPa Calm   1.0mph /  1.6km/h 56% 0.00in /  0mm 0.0 W/m2
03:27 66.0 °F /  18.9 °C 49.8 °F /  9.9 °C 29.65in /  1003.9hPa Calm     56% 0.00in /  0mm 0.0 W/m2
03:33 65.8 °F /  18.8 °C 50.2 °F /  10.1 °C 29.65in /  1003.9hPa Calm     57% 0.00in /  0mm 0.0 W/m2
03:38 65.7 °F /  18.7 °C 50.0 °F /  10 °C 29.65in /  1003.9hPa Calm     57% 0.00in /  0mm 0.0 W/m2
03:43 65.7 °F /  18.7 °C 50.5 °F /  10.3 °C 29.65in /  1003.9hPa ENE 0.9mph /  1.4km/h 1.0mph /  1.6km/h 58% 0.00in /  0mm 0.0 W/m2
03:48 65.5 °F /  18.6 °C 50.4 °F /  10.2 °C 29.65in /  1003.9hPa Calm   1.0mph /  1.6km/h 58% 0.00in /  0mm 0.0 W/m2
03:53 65.1 °F /  18.4 °C 50.4 °F /  10.2 °C 29.65in /  1003.9hPa Calm   1.0mph /  1.6km/h 59% 0.00in /  0mm 0.0 W/m2
03:58 64.9 °F /  18.3 °C 50.2 °F /  10.1 °C 29.65in /  1003.9hPa Calm   1.0mph /  1.6km/h 59% 0.00in /  0mm 0.0 W/m2
04:04 64.9 °F /  18.3 °C 50.2 °F /  10.1 °C 29.65in /  1003.9hPa Calm   1.0mph /  1.6km/h 59% 0.00in /  0mm 0.0 W/m2
04:09 64.8 °F /  18.2 °C 50.2 °F /  10.1 °C 29.64in /  1003.6hPa Calm   1.0mph /  1.6km/h 59% 0.00in /  0mm 0.0 W/m2
04:15 64.8 °F /  18.2 °C 50.5 °F /  10.3 °C 29.64in /  1003.6hPa Calm   1.0mph /  1.6km/h 60% 0.00in /  0mm 0.0 W/m2
04:20 64.6 °F /  18.1 °C 50.4 °F /  10.2 °C 29.64in /  1003.6hPa Calm   2.0mph /  3.2km/h 60% 0.00in /  0mm 0.0 W/m2
04:25 64.6 °F /  18.1 °C 50.4 °F /  10.2 °C 29.64in /  1003.6hPa Calm   1.0mph /  1.6km/h 60% 0.00in /  0mm 0.0 W/m2
04:31 64.4 °F /  18 °C 50.2 °F /  10.1 °C 29.64in /  1003.6hPa Calm   1.0mph /  1.6km/h 60% 0.00in /  0mm 0.0 W/m2
04:36 64.2 °F /  17.9 °C 50.5 °F /  10.3 °C 29.64in /  1003.6hPa East 0.9mph /  1.4km/h 1.0mph /  1.6km/h 61% 0.00in /  0mm 0.0 W/m2
04:41 64.2 °F /  17.9 °C 50.5 °F /  10.3 °C 29.64in /  1003.6hPa Calm   1.0mph /  1.6km/h 61% 0.00in /  0mm 0.0 W/m2
04:46 64.2 °F /  17.9 °C 50.5 °F /  10.3 °C 29.64in /  1003.6hPa Calm   1.0mph /  1.6km/h 61% 0.00in /  0mm 0.0 W/m2
04:51 64.2 °F /  17.9 °C 50.5 °F /  10.3 °C 29.64in /  1003.6hPa Calm     61% 0.00in /  0mm 0.0 W/m2
04:57 64.2 °F /  17.9 °C 50.5 °F /  10.3 °C 29.64in /  1003.6hPa NE 2.0mph /  3.2km/h 3.0mph /  4.8km/h 61% 0.00in /  0mm 0.0 W/m2
05:02 64.2 °F /  17.9 °C 50.9 °F /  10.5 °C 29.65in /  1003.9hPa Calm   3.0mph /  4.8km/h 62% 0.00in /  0mm 0.0 W/m2
05:07 64.0 °F /  17.8 °C 50.7 °F /  10.4 °C 29.64in /  1003.6hPa Calm   3.0mph /  4.8km/h 62% 0.00in /  0mm 0.0 W/m2
05:13 64.0 °F /  17.8 °C 50.7 °F /  10.4 °C 29.65in /  1003.9hPa Calm   2.0mph /  3.2km/h 62% 0.00in /  0mm 0.0 W/m2
05:18 64.0 °F /  17.8 °C 51.3 °F /  10.7 °C 29.65in /  1003.9hPa East 0.9mph /  1.4km/h 5.0mph /  8km/h 63% 0.00in /  0mm 0.0 W/m2
05:23 64.0 °F /  17.8 °C 50.7 °F /  10.4 °C 29.65in /  1003.9hPa Calm   5.0mph /  8km/h 62% 0.00in /  0mm 0.0 W/m2
05:28 64.2 °F /  17.9 °C 51.4 °F /  10.8 °C 29.65in /  1003.9hPa NE 2.0mph /  3.2km/h 3.0mph /  4.8km/h 63% 0.00in /  0mm 0.0 W/m2
05:33 64.2 °F /  17.9 °C 50.5 °F /  10.3 °C 29.65in /  1003.9hPa NNW 0.9mph /  1.4km/h 3.0mph /  4.8km/h 61% 0.00in /  0mm 0.0 W/m2
05:38 64.4 °F /  18 °C 50.7 °F /  10.4 °C 29.65in /  1003.9hPa Calm   1.0mph /  1.6km/h 61% 0.00in /  0mm 0.0 W/m2
05:43 64.4 °F /  18 °C 50.7 °F /  10.4 °C 29.65in /  1003.9hPa Calm     61% 0.00in /  0mm 0.0 W/m2
05:48 64.2 °F /  17.9 °C 50.9 °F /  10.5 °C 29.65in /  1003.9hPa Calm     62% 0.00in /  0mm 0.0 W/m2
05:54 64.0 °F /  17.8 °C 50.7 °F /  10.4 °C 29.65in /  1003.9hPa Calm     62% 0.00in /  0mm 0.0 W/m2
05:59 63.9 °F /  17.7 °C 51.1 °F /  10.6 °C 29.65in /  1003.9hPa Calm   1.0mph /  1.6km/h 63% 0.00in /  0mm 0.0 W/m2
06:04 63.7 °F /  17.6 °C 50.9 °F /  10.5 °C 29.65in /  1003.9hPa Calm   1.0mph /  1.6km/h 63% 0.00in /  0mm 0.0 W/m2
06:09 63.3 °F /  17.4 °C 50.5 °F /  10.3 °C 29.65in /  1003.9hPa Calm     63% 0.00in /  0mm 0.0 W/m2
06:14 63.1 °F /  17.3 °C 50.7 °F /  10.4 °C 29.65in /  1003.9hPa Calm     64% 0.00in /  0mm 0.0 W/m2
06:19 63.1 °F /  17.3 °C 51.3 °F /  10.7 °C 29.65in /  1003.9hPa Calm   2.0mph /  3.2km/h 65% 0.00in /  0mm 0.0 W/m2
06:24 63.0 °F /  17.2 °C 51.4 °F /  10.8 °C 29.65in /  1003.9hPa Calm     66% 0.00in /  0mm 0.0 W/m2
06:29 62.8 °F /  17.1 °C 51.3 °F /  10.7 °C 29.65in /  1003.9hPa Calm     66% 0.00in /  0mm 0.0 W/m2
06:35 62.4 °F /  16.9 °C 51.3 °F /  10.7 °C 29.65in /  1003.9hPa Calm     67% 0.00in /  0mm 0.0 W/m2
06:40 62.2 °F /  16.8 °C 51.1 °F /  10.6 °C 29.65in /  1003.9hPa Calm   1.0mph /  1.6km/h 67% 0.00in /  0mm 0.0 W/m2
06:45 62.2 °F /  16.8 °C 51.1 °F /  10.6 °C 29.65in /  1003.9hPa Calm   1.0mph /  1.6km/h 67% 0.00in /  0mm 0.0 W/m2
06:51 62.1 °F /  16.7 °C 50.9 °F /  10.5 °C 29.66in /  1004.3hPa Calm   1.0mph /  1.6km/h 67% 0.00in /  0mm 0.0 W/m2
06:56 61.9 °F /  16.6 °C 51.3 °F /  10.7 °C 29.66in /  1004.3hPa Calm     68% 0.00in /  0mm 7.0 W/m2
07:01 61.7 °F /  16.5 °C 51.1 °F /  10.6 °C 29.66in /  1004.3hPa Calm   1.0mph /  1.6km/h 68% 0.00in /  0mm 11.0 W/m2
07:07 61.5 °F /  16.4 °C 50.9 °F /  10.5 °C 29.66in /  1004.3hPa NNW 0.9mph /  1.4km/h 1.0mph /  1.6km/h 68% 0.00in /  0mm 14.0 W/m2
07:12 61.5 °F /  16.4 °C 51.3 °F /  10.7 °C 29.67in /  1004.6hPa Calm   1.0mph /  1.6km/h 69% 0.00in /  0mm 18.0 W/m2
07:17 61.3 °F /  16.3 °C 51.1 °F /  10.6 °C 29.67in /  1004.6hPa Calm     69% 0.00in /  0mm 19.0 W/m2
07:23 61.3 °F /  16.3 °C 51.4 °F /  10.8 °C 29.67in /  1004.6hPa Calm   1.0mph /  1.6km/h 70% 0.00in /  0mm 23.0 W/m2
07:28 61.3 °F /  16.3 °C 51.4 °F /  10.8 °C 29.67in /  1004.6hPa Calm   1.0mph /  1.6km/h 70% 0.00in /  0mm 25.0 W/m2
07:33 61.5 °F /  16.4 °C 51.6 °F /  10.9 °C 29.67in /  1004.6hPa Calm   2.0mph /  3.2km/h 70% 0.00in /  0mm 26.0 W/m2
07:38 61.7 °F /  16.5 °C 51.8 °F /  11 °C 29.67in /  1004.6hPa Calm   1.0mph /  1.6km/h 70% 0.00in /  0mm 28.0 W/m2
07:43 61.9 °F /  16.6 °C 52.0 °F /  11.1 °C 29.67in /  1004.6hPa Calm   2.0mph /  3.2km/h 70% 0.00in /  0mm 32.0 W/m2
07:48 62.1 °F /  16.7 °C 52.2 °F /  11.2 °C 29.68in /  1005hPa Calm   2.0mph /  3.2km/h 70% 0.00in /  0mm 33.0 W/m2
07:54 62.4 °F /  16.9 °C 52.5 °F /  11.4 °C 29.68in /  1005hPa Calm   1.0mph /  1.6km/h 70% 0.00in /  0mm 37.0 W/m2
07:59 63.0 °F /  17.2 °C 53.1 °F /  11.7 °C 29.68in /  1005hPa SE 2.0mph /  3.2km/h 4.0mph /  6.4km/h 70% 0.00in /  0mm 37.0 W/m2
08:05 63.3 °F /  17.4 °C 53.1 °F /  11.7 °C 29.68in /  1005hPa Calm   2.0mph /  3.2km/h 69% 0.00in /  0mm 40.0 W/m2
08:10 63.9 °F /  17.7 °C 53.1 °F /  11.7 °C 29.68in /  1005hPa ESE 0.9mph /  1.4km/h 2.0mph /  3.2km/h 68% 0.00in /  0mm 42.0 W/m2
08:15 64.6 °F /  18.1 °C 52.9 °F /  11.6 °C 29.68in /  1005hPa Calm   2.0mph /  3.2km/h 66% 0.00in /  0mm 44.0 W/m2
08:20 65.1 °F /  18.4 °C 52.7 °F /  11.5 °C 29.68in /  1005hPa Calm     64% 0.00in /  0mm 54.0 W/m2
08:25 65.8 °F /  18.8 °C 52.9 °F /  11.6 °C 29.68in /  1005hPa Calm   1.0mph /  1.6km/h 63% 0.00in /  0mm 49.0 W/m2
08:30 66.4 °F /  19.1 °C 52.5 °F /  11.4 °C 29.68in /  1005hPa Calm   1.0mph /  1.6km/h 61% 0.00in /  0mm 53.0 W/m2
08:35 66.9 °F /  19.4 °C 52.5 °F /  11.4 °C 29.68in /  1005hPa Calm     60% 0.00in /  0mm 49.0 W/m2
08:40 67.5 °F /  19.7 °C 52.7 °F /  11.5 °C 29.68in /  1005hPa Calm   1.0mph /  1.6km/h 59% 0.00in /  0mm 51.0 W/m2
08:46 68.2 °F /  20.1 °C 52.3 °F /  11.3 °C 29.68in /  1005hPa West 0.9mph /  1.4km/h 1.0mph /  1.6km/h 57% 0.00in /  0mm 53.0 W/m2
08:51 68.7 °F /  20.4 °C 52.3 °F /  11.3 °C 29.68in /  1005hPa Calm   2.0mph /  3.2km/h 56% 0.00in /  0mm 54.0 W/m2
08:56 69.3 °F /  20.7 °C 52.3 °F /  11.3 °C 29.68in /  1005hPa Calm   2.0mph /  3.2km/h 55% 0.00in /  0mm 63.0 W/m2
09:01 70.0 °F /  21.1 °C 53.1 °F /  11.7 °C 29.68in /  1005hPa Calm   3.0mph /  4.8km/h 55% 0.00in /  0mm 186.0 W/m2
09:06 70.3 °F /  21.3 °C 52.9 °F /  11.6 °C 29.68in /  1005hPa Calm     54% 0.00in /  0mm 218.0 W/m2
09:11 70.9 °F /  21.6 °C 53.4 °F /  11.9 °C 29.68in /  1005hPa Calm   3.0mph /  4.8km/h 54% 0.00in /  0mm 411.0 W/m2
09:16 71.2 °F /  21.8 °C 53.2 °F /  11.8 °C 29.69in /  1005.3hPa Calm   2.0mph /  3.2km/h 53% 0.00in /  0mm 418.0 W/m2
09:21 71.6 °F /  22 °C 53.6 °F /  12 °C 29.69in /  1005.3hPa West 0.9mph /  1.4km/h 2.0mph /  3.2km/h 53% 0.00in /  0mm 552.0 W/m2
09:27 72.1 °F /  22.3 °C 54.1 °F /  12.3 °C 29.68in /  1005hPa Calm   4.0mph /  6.4km/h 53% 0.00in /  0mm 577.0 W/m2
09:32 72.5 °F /  22.5 °C 52.9 °F /  11.6 °C 29.69in /  1005.3hPa SSW 0.9mph /  1.4km/h 2.0mph /  3.2km/h 50% 0.00in /  0mm 591.0 W/m2
09:37 72.9 °F /  22.7 °C 53.1 °F /  11.7 °C 29.69in /  1005.3hPa SW 2.0mph /  3.2km/h 3.0mph /  4.8km/h 50% 0.00in /  0mm 608.0 W/m2
09:42 73.0 °F /  22.8 °C 53.2 °F /  11.8 °C 29.69in /  1005.3hPa South 0.9mph /  1.4km/h 2.0mph /  3.2km/h 50% 0.00in /  0mm 621.0 W/m2
09:47 73.6 °F /  23.1 °C 53.2 °F /  11.8 °C 29.69in /  1005.3hPa Calm   2.0mph /  3.2km/h 49% 0.00in /  0mm 640.0 W/m2
09:52 73.8 °F /  23.2 °C 54.0 °F /  12.2 °C 29.69in /  1005.3hPa Calm   1.0mph /  1.6km/h 50% 0.00in /  0mm 661.0 W/m2
09:58 74.1 °F /  23.4 °C 54.9 °F /  12.7 °C 29.69in /  1005.3hPa Calm   1.0mph /  1.6km/h 51% 0.00in /  0mm 680.0 W/m2
10:04 75.6 °F /  24.2 °C 54.5 °F /  12.5 °C 29.69in /  1005.3hPa Calm   3.0mph /  4.8km/h 48% 0.00in /  0mm 696.0 W/m2
10:09 76.6 °F /  24.8 °C 54.3 °F /  12.4 °C 29.69in /  1005.3hPa WNW 2.0mph /  3.2km/h 4.0mph /  6.4km/h 46% 0.00in /  0mm 714.0 W/m2
10:14 77.4 °F /  25.2 °C 53.8 °F /  12.1 °C 29.68in /  1005hPa Calm   3.0mph /  4.8km/h 44% 0.00in /  0mm 731.0 W/m2
10:19 77.7 °F /  25.4 °C 54.1 °F /  12.3 °C 29.68in /  1005hPa Calm   4.0mph /  6.4km/h 44% 0.00in /  0mm 775.0 W/m2
10:24 77.7 °F /  25.4 °C 54.7 °F /  12.6 °C 29.68in /  1005hPa NNW 2.9mph /  4.7km/h 3.0mph /  4.8km/h 45% 0.00in /  0mm 791.0 W/m2
10:29 78.4 °F /  25.8 °C 53.4 °F /  11.9 °C 29.68in /  1005hPa ENE 2.0mph /  3.2km/h 2.0mph /  3.2km/h 42% 0.00in /  0mm 800.0 W/m2
10:34 79.3 °F /  26.3 °C 54.3 °F /  12.4 °C 29.68in /  1005hPa Calm   1.0mph /  1.6km/h 42% 0.00in /  0mm 809.0 W/m2
10:40 80.2 °F /  26.8 °C 52.3 °F /  11.3 °C 29.68in /  1005hPa NNE 4.0mph /  6.4km/h 6.0mph /  9.7km/h 38% 0.00in /  0mm 835.0 W/m2
10:45 81.0 °F /  27.2 °C 52.2 °F /  11.2 °C 29.67in /  1004.6hPa ENE 0.9mph /  1.4km/h 4.0mph /  6.4km/h 37% 0.00in /  0mm 835.0 W/m2
10:50 81.7 °F /  27.6 °C 52.9 °F /  11.6 °C 29.67in /  1004.6hPa NE 2.0mph /  3.2km/h 8.0mph /  12.9km/h 37% 0.00in /  0mm 826.0 W/m2
10:55 82.0 °F /  27.8 °C 53.2 °F /  11.8 °C 29.67in /  1004.6hPa ENE 0.9mph /  1.4km/h 5.0mph /  8km/h 37% 0.00in /  0mm 856.0 W/m2
11:00 82.4 °F /  28 °C 52.7 °F /  11.5 °C 29.67in /  1004.6hPa ENE 4.0mph /  6.4km/h 6.0mph /  9.7km/h 36% 0.00in /  0mm 863.0 W/m2
11:05 82.8 °F /  28.2 °C 53.1 °F /  11.7 °C 29.67in /  1004.6hPa SE 4.9mph /  7.9km/h 6.0mph /  9.7km/h 36% 0.00in /  0mm 877.0 W/m2
11:10 82.8 °F /  28.2 °C 52.3 °F /  11.3 °C 29.67in /  1004.6hPa NE 6.0mph /  9.7km/h 7.0mph /  11.3km/h 35% 0.00in /  0mm 905.0 W/m2
11:15 83.5 °F /  28.6 °C 53.8 °F /  12.1 °C 29.67in /  1004.6hPa NNE 2.0mph /  3.2km/h 7.0mph /  11.3km/h 36% 0.00in /  0mm 898.0 W/m2
11:20 84.0 °F /  28.9 °C 54.1 °F /  12.3 °C 29.67in /  1004.6hPa SE 4.9mph /  7.9km/h 7.0mph /  11.3km/h 36% 0.00in /  0mm 916.0 W/m2
11:26 84.2 °F /  29 °C 54.3 °F /  12.4 °C 29.66in /  1004.3hPa North 0.9mph /  1.4km/h 4.0mph /  6.4km/h 36% 0.00in /  0mm 940.0 W/m2
11:32 84.0 °F /  28.9 °C 54.1 °F /  12.3 °C 29.66in /  1004.3hPa SW 0.9mph /  1.4km/h 2.0mph /  3.2km/h 36% 0.00in /  0mm 243.0 W/m2
11:37 83.8 °F /  28.8 °C 54.0 °F /  12.2 °C 29.66in /  1004.3hPa ENE 8.9mph /  14.3km/h 9.0mph /  14.5km/h 36% 0.00in /  0mm 1034.0 W/m2
11:42 84.2 °F /  29 °C 53.6 °F /  12 °C 29.66in /  1004.3hPa ESE 0.9mph /  1.4km/h 7.0mph /  11.3km/h 35% 0.00in /  0mm 969.0 W/m2
11:47 84.4 °F /  29.1 °C 53.8 °F /  12.1 °C 29.65in /  1003.9hPa Calm   2.0mph /  3.2km/h 35% 0.00in /  0mm 995.0 W/m2
11:52 84.7 °F /  29.3 °C 52.5 °F /  11.4 °C 29.65in /  1003.9hPa SE 2.0mph /  3.2km/h 9.0mph /  14.5km/h 33% 0.00in /  0mm 1034.0 W/m2
11:57 85.6 °F /  29.8 °C 51.6 °F /  10.9 °C 29.65in /  1003.9hPa ENE 4.9mph /  7.9km/h 12.0mph /  19.3km/h 31% 0.00in /  0mm 998.0 W/m2
12:02 85.8 °F /  29.9 °C 52.5 °F /  11.4 °C 29.65in /  1003.9hPa ESE 4.0mph /  6.4km/h 11.0mph /  17.7km/h 32% 0.00in /  0mm 1044.0 W/m2
12:07 86.2 °F /  30.1 °C 52.9 °F /  11.6 °C 29.65in /  1003.9hPa SE 2.9mph /  4.7km/h 8.0mph /  12.9km/h 32% 0.00in /  0mm 1085.0 W/m2
12:13 86.2 °F /  30.1 °C 52.9 °F /  11.6 °C 29.65in /  1003.9hPa SSW 4.0mph /  6.4km/h 6.0mph /  9.7km/h 32% 0.00in /  0mm 1160.0 W/m2
12:19 86.4 °F /  30.2 °C 52.2 °F /  11.2 °C 29.65in /  1003.9hPa ENE 0.9mph /  1.4km/h 9.0mph /  14.5km/h 31% 0.00in /  0mm 1106.0 W/m2
12:24 86.5 °F /  30.3 °C 51.4 °F /  10.8 °C 29.65in /  1003.9hPa NNE 2.9mph /  4.7km/h 11.0mph /  17.7km/h 30% 0.00in /  0mm 1127.0 W/m2
12:29 86.4 °F /  30.2 °C 51.3 °F /  10.7 °C 29.65in /  1003.9hPa SE 8.1mph /  13km/h 9.0mph /  14.5km/h 30% 0.00in /  0mm 169.0 W/m2
12:34 86.2 °F /  30.1 °C 50.2 °F /  10.1 °C 29.64in /  1003.6hPa SE 4.0mph /  6.4km/h 6.0mph /  9.7km/h 29% 0.00in /  0mm 1100.0 W/m2
12:39 86.2 °F /  30.1 °C 51.1 °F /  10.6 °C 29.64in /  1003.6hPa East 4.0mph /  6.4km/h 11.0mph /  17.7km/h 30% 0.00in /  0mm 1106.0 W/m2
12:44 86.0 °F /  30 °C 51.8 °F /  11 °C 29.64in /  1003.6hPa ENE 2.9mph /  4.7km/h 8.0mph /  12.9km/h 31% 0.00in /  0mm 197.0 W/m2
12:49 85.5 °F /  29.7 °C 50.5 °F /  10.3 °C 29.64in /  1003.6hPa ESE 2.9mph /  4.7km/h 8.0mph /  12.9km/h 30% 0.00in /  0mm 211.0 W/m2
12:54 85.5 °F /  29.7 °C 52.2 °F /  11.2 °C 29.64in /  1003.6hPa SE 2.0mph /  3.2km/h 7.0mph /  11.3km/h 32% 0.00in /  0mm 1095.0 W/m2
12:59 86.4 °F /  30.2 °C 51.3 °F /  10.7 °C 29.64in /  1003.6hPa ESE 6.0mph /  9.7km/h 7.0mph /  11.3km/h 30% 0.00in /  0mm 1129.0 W/m2
13:05 86.9 °F /  30.5 °C 51.8 °F /  11 °C 29.64in /  1003.6hPa SE 4.0mph /  6.4km/h 8.0mph /  12.9km/h 30% 0.00in /  0mm 1139.0 W/m2
13:10 87.3 °F /  30.7 °C 49.3 °F /  9.6 °C 29.63in /  1003.3hPa NE 4.9mph /  7.9km/h 11.0mph /  17.7km/h 27% 0.00in /  0mm 1097.0 W/m2
13:15 87.6 °F /  30.9 °C 49.5 °F /  9.7 °C 29.63in /  1003.3hPa East 11.0mph /  17.7km/h 14.0mph /  22.5km/h 27% 0.00in /  0mm 1097.0 W/m2
13:20 88.0 °F /  31.1 °C 49.8 °F /  9.9 °C 29.63in /  1003.3hPa ENE 8.1mph /  13km/h 11.0mph /  17.7km/h 27% 0.00in /  0mm 1095.0 W/m2
13:25 88.3 °F /  31.3 °C 49.1 °F /  9.5 °C 29.63in /  1003.3hPa East 4.9mph /  7.9km/h 9.0mph /  14.5km/h 26% 0.00in /  0mm 1071.0 W/m2
13:30 88.3 °F /  31.3 °C 49.1 °F /  9.5 °C 29.63in /  1003.3hPa SSE 4.0mph /  6.4km/h 10.0mph /  16.1km/h 26% 0.00in /  0mm 1039.0 W/m2
13:35 88.3 °F /  31.3 °C 49.1 °F /  9.5 °C 29.62in /  1002.9hPa SSE 4.0mph /  6.4km/h 9.0mph /  14.5km/h 26% 0.00in /  0mm 1041.0 W/m2
13:40 88.3 °F /  31.3 °C 48.0 °F /  8.9 °C 29.62in /  1002.9hPa ENE 6.0mph /  9.7km/h 13.0mph /  20.9km/h 25% 0.00in /  0mm 1058.0 W/m2
13:46 88.9 °F /  31.6 °C 49.6 °F /  9.8 °C 29.62in /  1002.9hPa South 6.0mph /  9.7km/h 8.0mph /  12.9km/h 26% 0.00in /  0mm 1118.0 W/m2
13:51 88.7 °F /  31.5 °C 49.5 °F /  9.7 °C 29.62in /  1002.9hPa South 0.9mph /  1.4km/h 6.0mph /  9.7km/h 26% 0.00in /  0mm 1058.0 W/m2
13:56 88.3 °F /  31.3 °C 46.9 °F /  8.3 °C 29.62in /  1002.9hPa SE 2.9mph /  4.7km/h 13.0mph /  20.9km/h 24% 0.00in /  0mm 1063.0 W/m2
14:01 88.5 °F /  31.4 °C 48.2 °F /  9 °C 29.61in /  1002.6hPa North 11.0mph /  17.7km/h 15.0mph /  24.1km/h 25% 0.00in /  0mm 1056.0 W/m2
14:06 88.9 °F /  31.6 °C 46.2 °F /  7.9 °C 29.61in /  1002.6hPa NE 4.9mph /  7.9km/h 15.0mph /  24.1km/h 23% 0.00in /  0mm 1065.0 W/m2
14:11 89.2 °F /  31.8 °C 46.6 °F /  8.1 °C 29.61in /  1002.6hPa ENE 4.9mph /  7.9km/h 11.0mph /  17.7km/h 23% 0.00in /  0mm 1051.0 W/m2
14:16 89.6 °F /  32 °C 44.4 °F /  6.9 °C 29.61in /  1002.6hPa ENE 8.9mph /  14.3km/h 10.0mph /  16.1km/h 21% 0.00in /  0mm 1051.0 W/m2
14:21 89.6 °F /  32 °C 46.9 °F /  8.3 °C 29.60in /  1002.3hPa SSE 4.9mph /  7.9km/h 7.0mph /  11.3km/h 23% 0.00in /  0mm 976.0 W/m2
14:26 90.0 °F /  32.2 °C 46.0 °F /  7.8 °C 29.60in /  1002.3hPa East 6.9mph /  11.1km/h 14.0mph /  22.5km/h 22% 0.00in /  0mm 984.0 W/m2
14:32 90.1 °F /  32.3 °C 43.7 °F /  6.5 °C 29.60in /  1002.3hPa WSW 4.9mph /  7.9km/h 11.0mph /  17.7km/h 20% 0.00in /  0mm 990.0 W/m2
14:37 90.5 °F /  32.5 °C 42.6 °F /  5.9 °C 29.60in /  1002.3hPa SE 4.9mph /  7.9km/h 11.0mph /  17.7km/h 19% 0.00in /  0mm 986.0 W/m2
14:42 90.3 °F /  32.4 °C 46.4 °F /  8 °C 29.60in /  1002.3hPa East 6.0mph /  9.7km/h 13.0mph /  20.9km/h 22% 0.00in /  0mm 958.0 W/m2
14:47 90.5 °F /  32.5 °C 45.3 °F /  7.4 °C 29.59in /  1001.9hPa East 6.9mph /  11.1km/h 11.0mph /  17.7km/h 21% 0.00in /  0mm 951.0 W/m2
14:52 90.3 °F /  32.4 °C 45.1 °F /  7.3 °C 29.59in /  1001.9hPa ESE 10.1mph /  16.3km/h 12.0mph /  19.3km/h 21% 0.00in /  0mm 923.0 W/m2
14:57 90.3 °F /  32.4 °C 43.9 °F /  6.6 °C 29.59in /  1001.9hPa East 2.9mph /  4.7km/h 11.0mph /  17.7km/h 20% 0.00in /  0mm 882.0 W/m2
15:02 90.7 °F /  32.6 °C 44.1 °F /  6.7 °C 29.59in /  1001.9hPa ESE 8.1mph /  13km/h 11.0mph /  17.7km/h 20% 0.00in /  0mm 900.0 W/m2
15:07 90.1 °F /  32.3 °C 42.3 °F /  5.7 °C 29.59in /  1001.9hPa NNE 8.1mph /  13km/h 9.0mph /  14.5km/h 19% 0.00in /  0mm 888.0 W/m2
15:12 90.3 °F /  32.4 °C 43.9 °F /  6.6 °C 29.59in /  1001.9hPa ENE 8.1mph /  13km/h 12.0mph /  19.3km/h 20% 0.00in /  0mm 868.0 W/m2
15:18 90.3 °F /  32.4 °C 45.1 °F /  7.3 °C 29.59in /  1001.9hPa SE 0.9mph /  1.4km/h 9.0mph /  14.5km/h 21% 0.00in /  0mm 837.0 W/m2
15:23 90.1 °F /  32.3 °C 43.7 °F /  6.5 °C 29.58in /  1001.6hPa NNE 4.9mph /  7.9km/h 15.0mph /  24.1km/h 20% 0.00in /  0mm 860.0 W/m2
15:29 90.3 °F /  32.4 °C 43.9 °F /  6.6 °C 29.58in /  1001.6hPa East 6.0mph /  9.7km/h 9.0mph /  14.5km/h 20% 0.00in /  0mm 856.0 W/m2
15:34 90.7 °F /  32.6 °C 44.1 °F /  6.7 °C 29.58in /  1001.6hPa SE 8.9mph /  14.3km/h 9.0mph /  14.5km/h 20% 0.00in /  0mm 95.0 W/m2
15:39 90.0 °F /  32.2 °C 44.8 °F /  7.1 °C 29.58in /  1001.6hPa ENE 8.9mph /  14.3km/h 12.0mph /  19.3km/h 21% 0.00in /  0mm 782.0 W/m2
15:44 90.0 °F /  32.2 °C 42.3 °F /  5.7 °C 29.57in /  1001.2hPa SE 2.9mph /  4.7km/h 11.0mph /  17.7km/h 19% 0.00in /  0mm 758.0 W/m2
15:49 90.1 °F /  32.3 °C 42.3 °F /  5.7 °C 29.57in /  1001.2hPa Calm   12.0mph /  19.3km/h 19% 0.00in /  0mm 745.0 W/m2
15:54 90.3 °F /  32.4 °C 42.4 °F /  5.8 °C 29.57in /  1001.2hPa ENE 2.9mph /  4.7km/h 10.0mph /  16.1km/h 19% 0.00in /  0mm 751.0 W/m2
15:59 90.7 °F /  32.6 °C 44.1 °F /  6.7 °C 29.57in /  1001.2hPa North 2.0mph /  3.2km/h 9.0mph /  14.5km/h 20% 0.00in /  0mm 744.0 W/m2
16:04 91.2 °F /  32.9 °C 43.2 °F /  6.2 °C 29.57in /  1001.2hPa SE 6.9mph /  11.1km/h 16.0mph /  25.7km/h 19% 0.00in /  0mm 744.0 W/m2
16:10 91.0 °F /  32.8 °C 43.0 °F /  6.1 °C 29.57in /  1001.2hPa SE 8.9mph /  14.3km/h 12.0mph /  19.3km/h 19% 0.00in /  0mm 640.0 W/m2
16:15 90.3 °F /  32.4 °C 41.0 °F /  5 °C 29.57in /  1001.2hPa Calm   4.0mph /  6.4km/h 18% 0.00in /  0mm 74.0 W/m2
16:20 89.6 °F /  32 °C 39.0 °F /  3.9 °C 29.57in /  1001.2hPa NNE 0.9mph /  1.4km/h 6.0mph /  9.7km/h 17% 0.00in /  0mm 74.0 W/m2
16:25 89.4 °F /  31.9 °C 41.7 °F /  5.4 °C 29.57in /  1001.2hPa ENE 6.0mph /  9.7km/h 11.0mph /  17.7km/h 19% 0.00in /  0mm 643.0 W/m2
16:30 89.8 °F /  32.1 °C 42.1 °F /  5.6 °C 29.57in /  1001.2hPa NE 0.9mph /  1.4km/h 13.0mph /  20.9km/h 19% 0.00in /  0mm 629.0 W/m2
16:35 90.1 °F /  32.3 °C 43.7 °F /  6.5 °C 29.56in /  1000.9hPa SE 0.9mph /  1.4km/h 10.0mph /  16.1km/h 20% 0.00in /  0mm 599.0 W/m2
16:40 90.5 °F /  32.5 °C 43.9 °F /  6.6 °C 29.56in /  1000.9hPa SE 6.9mph /  11.1km/h 11.0mph /  17.7km/h 20% 0.00in /  0mm 582.0 W/m2
16:45 90.5 °F /  32.5 °C 43.9 °F /  6.6 °C 29.56in /  1000.9hPa SE 6.0mph /  9.7km/h 14.0mph /  22.5km/h 20% 0.00in /  0mm 564.0 W/m2
16:50 90.5 °F /  32.5 °C 42.6 °F /  5.9 °C 29.56in /  1000.9hPa ESE 6.0mph /  9.7km/h 10.0mph /  16.1km/h 19% 0.00in /  0mm 543.0 W/m2
16:56 90.3 °F /  32.4 °C 43.9 °F /  6.6 °C 29.56in /  1000.9hPa SE 10.1mph /  16.3km/h 10.1mph /  16.3km/h 20% 0.00in /  0mm 520.0 W/m2
17:01 90.0 °F /  32.2 °C 44.8 °F /  7.1 °C 29.55in /  1000.6hPa SE 4.0mph /  6.4km/h 8.0mph /  12.9km/h 21% 0.00in /  0mm 513.0 W/m2
17:06 90.1 °F /  32.3 °C 43.7 °F /  6.5 °C 29.55in /  1000.6hPa South 2.0mph /  3.2km/h 8.0mph /  12.9km/h 20% 0.00in /  0mm 497.0 W/m2
17:11 90.5 °F /  32.5 °C 43.9 °F /  6.6 °C 29.55in /  1000.6hPa ESE 6.9mph /  11.1km/h 13.0mph /  20.9km/h 20% 0.00in /  0mm 490.0 W/m2
17:16 90.3 °F /  32.4 °C 42.4 °F /  5.8 °C 29.55in /  1000.6hPa SE 4.9mph /  7.9km/h 10.0mph /  16.1km/h 19% 0.00in /  0mm 468.0 W/m2
17:21 90.1 °F /  32.3 °C 41.0 °F /  5 °C 29.55in /  1000.6hPa SSE 6.9mph /  11.1km/h 9.0mph /  14.5km/h 18% 0.00in /  0mm 441.0 W/m2
17:26 90.1 °F /  32.3 °C 42.3 °F /  5.7 °C 29.55in /  1000.6hPa ESE 2.9mph /  4.7km/h 9.0mph /  14.5km/h 19% 0.00in /  0mm 417.0 W/m2
17:31 90.3 °F /  32.4 °C 42.4 °F /  5.8 °C 29.55in /  1000.6hPa SE 6.0mph /  9.7km/h 9.0mph /  14.5km/h 19% 0.00in /  0mm 390.0 W/m2
17:36 90.5 °F /  32.5 °C 41.2 °F /  5.1 °C 29.55in /  1000.6hPa ESE 8.9mph /  14.3km/h 12.0mph /  19.3km/h 18% 0.00in /  0mm 369.0 W/m2
17:41 90.1 °F /  32.3 °C 42.3 °F /  5.7 °C 29.55in /  1000.6hPa South 0.9mph /  1.4km/h 6.0mph /  9.7km/h 19% 0.00in /  0mm 341.0 W/m2
17:46 90.3 °F /  32.4 °C 42.4 °F /  5.8 °C 29.55in /  1000.6hPa SE 2.0mph /  3.2km/h 5.0mph /  8km/h 19% 0.00in /  0mm 316.0 W/m2
17:52 90.9 °F /  32.7 °C 41.5 °F /  5.3 °C 29.55in /  1000.6hPa NE 4.9mph /  7.9km/h 9.0mph /  14.5km/h 18% 0.00in /  0mm 295.0 W/m2
17:57 90.9 °F /  32.7 °C 41.5 °F /  5.3 °C 29.55in /  1000.6hPa ESE 2.0mph /  3.2km/h 11.0mph /  17.7km/h 18% 0.00in /  0mm 278.0 W/m2
18:02 90.3 °F /  32.4 °C 41.0 °F /  5 °C 29.55in /  1000.6hPa SSE 2.0mph /  3.2km/h 9.0mph /  14.5km/h 18% 0.00in /  0mm 260.0 W/m2
18:07 90.3 °F /  32.4 °C 41.0 °F /  5 °C 29.55in /  1000.6hPa SSE 2.9mph /  4.7km/h 10.0mph /  16.1km/h 18% 0.00in /  0mm 239.0 W/m2
18:12 90.3 °F /  32.4 °C 42.4 °F /  5.8 °C 29.55in /  1000.6hPa SSE 2.0mph /  3.2km/h 6.0mph /  9.7km/h 19% 0.00in /  0mm 214.0 W/m2
18:17 90.3 °F /  32.4 °C 42.4 °F /  5.8 °C 29.55in /  1000.6hPa SSW 6.0mph /  9.7km/h 8.0mph /  12.9km/h 19% 0.00in /  0mm 181.0 W/m2
18:23 89.8 °F /  32.1 °C 43.3 °F /  6.3 °C 29.55in /  1000.6hPa SE 0.9mph /  1.4km/h 6.0mph /  9.7km/h 20% 0.00in /  0mm 165.0 W/m2
18:28 89.4 °F /  31.9 °C 44.4 °F /  6.9 °C 29.56in /  1000.9hPa ESE 4.9mph /  7.9km/h 5.0mph /  8km/h 21% 0.00in /  0mm 142.0 W/m2
18:33 89.2 °F /  31.8 °C 43.0 °F /  6.1 °C 29.56in /  1000.9hPa SSE 4.9mph /  7.9km/h 6.0mph /  9.7km/h 20% 0.00in /  0mm 116.0 W/m2
18:39 88.9 °F /  31.6 °C 42.6 °F /  5.9 °C 29.56in /  1000.9hPa SE 4.9mph /  7.9km/h 10.0mph /  16.1km/h 20% 0.00in /  0mm 40.0 W/m2
18:44 88.2 °F /  31.2 °C 42.1 °F /  5.6 °C 29.56in /  1000.9hPa SSE 2.9mph /  4.7km/h 8.0mph /  12.9km/h 20% 0.00in /  0mm 30.0 W/m2
18:49 87.4 °F /  30.8 °C 41.4 °F /  5.2 °C 29.56in /  1000.9hPa SE 0.9mph /  1.4km/h 8.0mph /  12.9km/h 20% 0.00in /  0mm 25.0 W/m2
18:54 86.7 °F /  30.4 °C 42.1 °F /  5.6 °C 29.56in /  1000.9hPa South 0.9mph /  1.4km/h 3.0mph /  4.8km/h 21% 0.00in /  0mm 26.0 W/m2
18:59 86.4 °F /  30.2 °C 41.9 °F /  5.5 °C 29.56in /  1000.9hPa East 4.9mph /  7.9km/h 7.0mph /  11.3km/h 21% 0.00in /  0mm 26.0 W/m2
19:04 85.8 °F /  29.9 °C 42.6 °F /  5.9 °C 29.56in /  1000.9hPa East 2.0mph /  3.2km/h 7.0mph /  11.3km/h 22% 0.00in /  0mm 16.0 W/m2
19:09 85.5 °F /  29.7 °C 43.5 °F /  6.4 °C 29.56in /  1000.9hPa ESE 2.0mph /  3.2km/h 2.0mph /  3.2km/h 23% 0.00in /  0mm 11.0 W/m2
19:14 85.3 °F /  29.6 °C 43.3 °F /  6.3 °C 29.57in /  1001.2hPa ESE 0.9mph /  1.4km/h 2.0mph /  3.2km/h 23% 0.00in /  0mm 0.0 W/m2
19:20 84.7 °F /  29.3 °C 43.9 °F /  6.6 °C 29.57in /  1001.2hPa SE 2.9mph /  4.7km/h 3.0mph /  4.8km/h 24% 0.00in /  0mm 0.0 W/m2
19:25 84.4 °F /  29.1 °C 43.7 °F /  6.5 °C 29.57in /  1001.2hPa ESE 2.9mph /  4.7km/h 8.0mph /  12.9km/h 24% 0.00in /  0mm 0.0 W/m2
19:30 83.8 °F /  28.8 °C 44.2 °F /  6.8 °C 29.57in /  1001.2hPa ESE 6.0mph /  9.7km/h 8.0mph /  12.9km/h 25% 0.00in /  0mm 0.0 W/m2
19:35 83.7 °F /  28.7 °C 44.1 °F /  6.7 °C 29.57in /  1001.2hPa SE 4.9mph /  7.9km/h 7.0mph /  11.3km/h 25% 0.00in /  0mm 0.0 W/m2
19:40 83.3 °F /  28.5 °C 43.9 °F /  6.6 °C 29.58in /  1001.6hPa SE 0.9mph /  1.4km/h 3.0mph /  4.8km/h 25% 0.00in /  0mm 0.0 W/m2
19:45 82.9 °F /  28.3 °C 44.6 °F /  7 °C 29.58in /  1001.6hPa SE 0.9mph /  1.4km/h 3.0mph /  4.8km/h 26% 0.00in /  0mm 0.0 W/m2
19:50 82.8 °F /  28.2 °C 44.4 °F /  6.9 °C 29.58in /  1001.6hPa East 2.0mph /  3.2km/h 5.0mph /  8km/h 26% 0.00in /  0mm 0.0 W/m2
19:55 82.6 °F /  28.1 °C 44.2 °F /  6.8 °C 29.58in /  1001.6hPa SE 2.9mph /  4.7km/h 6.0mph /  9.7km/h 26% 0.00in /  0mm 0.0 W/m2
20:00 82.2 °F /  27.9 °C 43.9 °F /  6.6 °C 29.59in /  1001.9hPa Calm   5.0mph /  8km/h 26% 0.00in /  0mm 0.0 W/m2
20:05 82.0 °F /  27.8 °C 44.8 °F /  7.1 °C 29.59in /  1001.9hPa SE 2.0mph /  3.2km/h 5.0mph /  8km/h 27% 0.00in /  0mm 0.0 W/m2
20:11 81.9 °F /  27.7 °C 44.6 °F /  7 °C 29.59in /  1001.9hPa Calm   5.0mph /  8km/h 27% 0.00in /  0mm 0.0 W/m2
20:17 81.7 °F /  27.6 °C 44.4 °F /  6.9 °C 29.59in /  1001.9hPa SE 2.0mph /  3.2km/h 3.0mph /  4.8km/h 27% 0.00in /  0mm 0.0 W/m2
20:22 81.5 °F /  27.5 °C 44.2 °F /  6.8 °C 29.59in /  1001.9hPa ESE 2.9mph /  4.7km/h 5.0mph /  8km/h 27% 0.00in /  0mm 0.0 W/m2
20:27 81.3 °F /  27.4 °C 44.1 °F /  6.7 °C 29.59in /  1001.9hPa ESE 0.9mph /  1.4km/h 6.0mph /  9.7km/h 27% 0.00in /  0mm 0.0 W/m2
20:32 81.1 °F /  27.3 °C 45.0 °F /  7.2 °C 29.59in /  1001.9hPa ESE 0.9mph /  1.4km/h 4.0mph /  6.4km/h 28% 0.00in /  0mm 0.0 W/m2
20:37 81.1 °F /  27.3 °C 45.0 °F /  7.2 °C 29.59in /  1001.9hPa Calm   4.0mph /  6.4km/h 28% 0.00in /  0mm 0.0 W/m2
20:42 81.0 °F /  27.2 °C 44.8 °F /  7.1 °C 29.60in /  1002.3hPa East 2.0mph /  3.2km/h 6.0mph /  9.7km/h 28% 0.00in /  0mm 0.0 W/m2
20:47 81.0 °F /  27.2 °C 44.8 °F /  7.1 °C 29.60in /  1002.3hPa ESE 4.0mph /  6.4km/h 5.0mph /  8km/h 28% 0.00in /  0mm 0.0 W/m2
20:52 80.8 °F /  27.1 °C 44.6 °F /  7 °C 29.60in /  1002.3hPa SE 4.9mph /  7.9km/h 7.0mph /  11.3km/h 28% 0.00in /  0mm 0.0 W/m2
20:58 80.8 °F /  27.1 °C 44.6 °F /  7 °C 29.61in /  1002.6hPa SE 8.1mph /  13km/h 10.0mph /  16.1km/h 28% 0.00in /  0mm 0.0 W/m2
21:03 79.9 °F /  26.6 °C 54.1 °F /  12.3 °C 29.63in /  1003.3hPa SE 6.0mph /  9.7km/h 24.0mph /  38.6km/h 41% 0.01in /  0.25mm 0.0 W/m2
21:08 76.3 °F /  24.6 °C 55.8 °F /  13.2 °C 29.62in /  1002.9hPa NW 2.9mph /  4.7km/h 5.0mph /  8km/h 49% 0.09in /  2.29mm 0.0 W/m2
21:13 73.0 °F /  22.8 °C 56.8 °F /  13.8 °C 29.61in /  1002.6hPa Calm   2.0mph /  3.2km/h 57% 0.09in /  2.29mm 0.0 W/m2
21:18 70.9 °F /  21.6 °C 58.1 °F /  14.5 °C 29.61in /  1002.6hPa WSW 0.9mph /  1.4km/h 3.0mph /  4.8km/h 64% 0.09in /  2.29mm 0.0 W/m2
21:23 69.3 °F /  20.7 °C 58.6 °F /  14.8 °C 29.61in /  1002.6hPa SE 2.9mph /  4.7km/h 6.0mph /  9.7km/h 69% 0.09in /  2.29mm 0.0 W/m2
21:28 68.2 °F /  20.1 °C 58.8 °F /  14.9 °C 29.61in /  1002.6hPa Calm   1.0mph /  1.6km/h 72% 0.09in /  2.29mm 0.0 W/m2
21:33 67.5 °F /  19.7 °C 60.4 °F /  15.8 °C 29.61in /  1002.6hPa SE 0.9mph /  1.4km/h 3.0mph /  4.8km/h 78% 0.09in /  2.29mm 0.0 W/m2
21:38 66.9 °F /  19.4 °C 60.3 °F /  15.7 °C 29.61in /  1002.6hPa SE 0.9mph /  1.4km/h 1.0mph /  1.6km/h 79% 0.09in /  2.29mm 0.0 W/m2
21:44 66.7 °F /  19.3 °C 60.1 °F /  15.6 °C 29.61in /  1002.6hPa Calm   4.0mph /  6.4km/h 79% 0.09in /  2.29mm 0.0 W/m2
21:49 66.4 °F /  19.1 °C 58.3 °F /  14.6 °C 29.61in /  1002.6hPa SE 0.9mph /  1.4km/h 6.0mph /  9.7km/h 75% 0.09in /  2.29mm 0.0 W/m2
21:54 66.0 °F /  18.9 °C 55.9 °F /  13.3 °C 29.61in /  1002.6hPa SE 2.0mph /  3.2km/h 6.0mph /  9.7km/h 70% 0.09in /  2.29mm 0.0 W/m2
21:59 66.4 °F /  19.1 °C 55.9 °F /  13.3 °C 29.62in /  1002.9hPa ESE 4.0mph /  6.4km/h 5.0mph /  8km/h 69% 0.09in /  2.29mm 0.0 W/m2
22:04 66.4 °F /  19.1 °C 53.8 °F /  12.1 °C 29.62in /  1002.9hPa SE 4.9mph /  7.9km/h 6.0mph /  9.7km/h 64% 0.07in /  1.78mm 0.0 W/m2
22:14 67.5 °F /  19.7 °C 52.7 °F /  11.5 °C 29.62in /  1002.9hPa SSE 4.0mph /  6.4km/h 8.0mph /  12.9km/h 59% 0.00in /  0mm 0.0 W/m2
22:19 67.8 °F /  19.9 °C 53.4 °F /  11.9 °C 29.62in /  1002.9hPa SE 4.9mph /  7.9km/h 5.0mph /  8km/h 60% 0.00in /  0mm 0.0 W/m2
22:24 67.8 °F /  19.9 °C 52.0 °F /  11.1 °C 29.62in /  1002.9hPa ESE 4.0mph /  6.4km/h 6.0mph /  9.7km/h 57% 0.00in /  0mm 0.0 W/m2
22:29 67.8 °F /  19.9 °C 52.5 °F /  11.4 °C 29.63in /  1003.3hPa NE 2.9mph /  4.7km/h 5.0mph /  8km/h 58% 0.00in /  0mm 0.0 W/m2
22:35 68.2 °F /  20.1 °C 52.3 °F /  11.3 °C 29.63in /  1003.3hPa NE 0.9mph /  1.4km/h 2.0mph /  3.2km/h 57% 0.00in /  0mm 0.0 W/m2
22:40 68.4 °F /  20.2 °C 52.0 °F /  11.1 °C 29.63in /  1003.3hPa East 2.0mph /  3.2km/h 6.0mph /  9.7km/h 56% 0.00in /  0mm 0.0 W/m2
22:45 68.4 °F /  20.2 °C 52.0 °F /  11.1 °C 29.64in /  1003.6hPa East 0.9mph /  1.4km/h 3.0mph /  4.8km/h 56% 0.00in /  0mm 0.0 W/m2
22:50 68.5 °F /  20.3 °C 52.7 °F /  11.5 °C 29.64in /  1003.6hPa East 0.9mph /  1.4km/h 2.0mph /  3.2km/h 57% 0.00in /  0mm 0.0 W/m2
22:55 68.5 °F /  20.3 °C 52.2 °F /  11.2 °C 29.64in /  1003.6hPa Calm   1.0mph /  1.6km/h 56% 0.00in /  0mm 0.0 W/m2
23:00 68.5 °F /  20.3 °C 53.2 °F /  11.8 °C 29.64in /  1003.6hPa East 0.9mph /  1.4km/h 2.0mph /  3.2km/h 58% 0.00in /  0mm 0.0 W/m2
23:05 68.5 °F /  20.3 °C 53.6 °F /  12 °C 29.64in /  1003.6hPa Calm   1.0mph /  1.6km/h 59% 0.00in /  0mm 0.0 W/m2
23:10 68.5 °F /  20.3 °C 53.6 °F /  12 °C 29.65in /  1003.9hPa Calm   1.0mph /  1.6km/h 59% 0.00in /  0mm 0.0 W/m2
23:15 68.5 °F /  20.3 °C 54.1 °F /  12.3 °C 29.65in /  1003.9hPa Calm   1.0mph /  1.6km/h 60% 0.00in /  0mm 0.0 W/m2
23:21 68.5 °F /  20.3 °C 54.5 °F /  12.5 °C 29.65in /  1003.9hPa Calm   1.0mph /  1.6km/h 61% 0.00in /  0mm 0.0 W/m2
23:26 68.5 °F /  20.3 °C 55.0 °F /  12.8 °C 29.65in /  1003.9hPa Calm     62% 0.00in /  0mm 0.0 W/m2
23:31 68.4 °F /  20.2 °C 54.3 °F /  12.4 °C 29.65in /  1003.9hPa Calm     61% 0.00in /  0mm 0.0 W/m2
23:37 68.4 °F /  20.2 °C 54.3 °F /  12.4 °C 29.65in /  1003.9hPa Calm     61% 0.00in /  0mm 0.0 W/m2
23:42 68.4 °F /  20.2 °C 53.4 °F /  11.9 °C 29.65in /  1003.9hPa NNE 2.0mph /  3.2km/h 3.0mph /  4.8km/h 59% 0.00in /  0mm 0.0 W/m2
23:47 68.5 °F /  20.3 °C 51.8 °F /  11 °C 29.65in /  1003.9hPa NNE 2.0mph /  3.2km/h 4.0mph /  6.4km/h 55% 0.00in /  0mm 0.0 W/m2
23:52 69.3 °F /  20.7 °C 52.0 °F /  11.1 °C 29.65in /  1003.9hPa ENE 2.0mph /  3.2km/h 4.0mph /  6.4km/h 54% 0.00in /  0mm 0.0 W/m2
23:57 70.0 °F /  21.1 °C 51.6 °F /  10.9 °C 29.66in /  1004.3hPa NNE 2.9mph /  4.7km/h 6.0mph /  9.7km/h 52% 0.00in /  0mm 0.0 W/m2
Olympia, Windhoek, Namibia
Compliments of Weather Underground - 3.25 mb